This is the latest recevied weather packets stored in our database for station/object SQ8AQL-16. If no packets are shown the sender has not sent any weather packets the latest 1 day(s).
| Time | Temp. | Humidity | Pressure | Rain* | Wind** | Luminosity | Snow |
|---|---|---|---|---|---|---|---|
| 1777995315 | 27.78° C | 18% | 1009.4 hPa | - | 0 m/s | 97 W/m² | - |
| 1777994414 | 27.78° C | 18% | 1009.4 hPa | - | 0.45 m/s, 264° | 97 W/m² | - |
| 1777993513 | 30.56° C | 16% | 1009.4 hPa | - | 0 m/s | 297 W/m² | - |
| 1777992612 | 30.56° C | 16% | 1009.4 hPa | - | 0 m/s | 297 W/m² | - |
| 1777991711 | 30.56° C | 16% | 1009.5 hPa | - | 0.89 m/s, 234° | 297 W/m² | - |
| 1777990810 | 31.67° C | 17% | 1009.7 hPa | - | 0.89 m/s, 216° | 367 W/m² | - |
| 1777989909 | 31.67° C | 16% | 1009.7 hPa | - | 0 m/s | 314 W/m² | - |
| 1777989008 | 31.67° C | 16% | 1010 hPa | - | 0.45 m/s, 138° | 314 W/m² | - |
| 1777988107 | 31.67° C | 15% | 1010.1 hPa | - | 0.45 m/s, 210° | 429 W/m² | - |
| 1777987206 | 33.33° C | 16% | 1010.2 hPa | - | 0.45 m/s, 198° | 551 W/m² | - |
| 1777986305 | 32.22° C | 16% | 1010.4 hPa | - | 0.89 m/s, 180° | 629 W/m² | - |
| 1777985404 | 33.33° C | 16% | 1010.6 hPa | - | 0.89 m/s, 66° | 638 W/m² | - |
| 1777984503 | 31.11° C | 17% | 1010.9 hPa | - | 0.45 m/s, 90° | 759 W/m² | - |
| 1777983602 | 32.22° C | 15% | 1011.1 hPa | - | 0 m/s | 795 W/m² | - |
| 1777982701 | 32.22° C | 15% | 1011.2 hPa | - | 0 m/s | 795 W/m² | - |
| 1777981800 | 32.22° C | 16% | 1011.4 hPa | - | 0.45 m/s, 294° | 839 W/m² | - |
| 1777980899 | 31.67° C | 17% | 1011.6 hPa | - | 0.45 m/s, 354° | 878 W/m² | - |
| 1777979997 | 31.11° C | 18% | 1011.7 hPa | - | 0.89 m/s, 162° | 904 W/m² | - |
| 1777979096 | 31.11° C | 16% | 1011.9 hPa | - | 0.45 m/s, 354° | 889 W/m² | - |
| 1777978195 | 29.44° C | 17% | 1012.1 hPa | - | 0.89 m/s, 318° | 881 W/m² | - |
| 1777977294 | 28.89° C | 17% | 1012.2 hPa | - | 0.45 m/s, 84° | 789 W/m² | - |
| 1777976393 | 29.44° C | 17% | 1012.4 hPa | - | 0.45 m/s, 156° | 612 W/m² | - |
| 1777975492 | 28.89° C | 19% | 1012.6 hPa | - | 0.45 m/s, 66° | 754 W/m² | - |
| 1777974591 | 26.67° C | 21% | 1012.7 hPa | - | 0 m/s | 741 W/m² | - |
| 1777973690 | 24.44° C | 24% | 1012.9 hPa | - | 0 m/s | 50 W/m² | - |
* Rain since midnight (hover to see other rain measurements)
** Current wind speed in m/s (hover to see current wind gust speed)